< < Back
Terminal Aerodrome Forecast


Current Version              Previous Versions:   1  2  3  4  5  6  7  8  9  

Terminal Aerodrome Forecast

644
FTUS44 KBMX 012330
TAFTCL
TAF
KTCL 012330Z 0200/0224 01009KT P6SM SKC
     FM020200 03004KT P6SM SKC
     FM021500 34007KT P6SM SKC=

Latest METAR

074
SAUS70 KWBC 021600 RRL
MTRTCL
METAR KTCL 021553Z 05007KT 10SM CLR 32/17 A2995 RMK AO2 SLP141
T03220172


USA.gov is the U.S. government's official web portal to all federal, state and local government web resources and services.